Rupert, Vermont
Current Conditions -  °F | °C
As of 1:43 AM on Saturday 25 Oct 2014 (Local Time) from KGFL Reporting Station
Haze Haze  
Wind Chill: 43°   Ceiling: 200
Heat Index: 43°   Visibility: 1mi
Dew Point: 42°   Wind: 3mph
Humidity: 97%   Direction: 200°SSW
Pressure: 29.82"   Gusts: NA
Location:  43.26°N, 73.22°W
Report Text: KGFL 250543Z AUTO 20003KT 1SM BR VV002 06/06 A2982 RMK AO2 T00610056
Loading
Personal Weather Stations






























Interactive Weather Map
Tropical Storm Tracking
New forecast layout! Learn more

10-Day Weather Forecast

Advertisements
Track Severe Weather on mobile